| time (UTC) | temp C | wind direction | speed KPH | gust KPH | rain 1hr cm | rain 24hr cm | rain mn cm | humidity % | barometer mb |
| 20260507180032 | 17 | 114 | 1.6 | 9.7 | 0.00 | 0.00 | 0.00 | 49 | 1010.9 |
| 20260507174532 | 17 | 326 | 9.7 | 17.7 | 0.00 | 0.00 | 0.00 | 47 | 1011.1 |
| 20260507173027 | 17 | 340 | 4.8 | 8.0 | 0.00 | 0.00 | 0.00 | 49 | 1011.5 |
| 20260507171523 | 17 | 351 | 1.6 | 8.0 | 0.00 | 0.00 | 0.00 | 51 | 1011.8 |
| 20260507170021 | 16 | 338 | 6.4 | 14.5 | 0.00 | 0.00 | 0.00 | 50 | 1011.9 |
| 20260507164521 | 16 | 321 | 4.8 | 11.3 | 0.00 | 0.00 | 0.00 | 48 | 1012.1 |
| 20260507163020 | 16 | 316 | 1.6 | 9.7 | 0.00 | 0.00 | 0.00 | 51 | 1012.3 |
| 20260507161517 | 16 | 323 | 6.4 | 16.1 | 0.00 | 0.00 | 0.00 | 51 | 1012.4 |
| 20260507160016 | 16 | 75 | 1.6 | 6.4 | 0.00 | 0.00 | 0.00 | 53 | 1012.7 |
| 20260507154514 | 16 | 31 | 1.6 | 9.7 | 0.00 | 0.00 | 0.00 | 58 | 1012.9 |
| 20260507153010 | 16 | 326 | 1.6 | 6.4 | 0.00 | 0.00 | 0.00 | 59 | 1013.1 |
| 20260507151508 | 15 | 324 | 4.8 | 11.3 | 0.00 | 0.00 | 0.00 | 59 | 1013.2 |
| 20260507150005 | 14 | 13 | 1.6 | 8.0 | 0.00 | 0.00 | 0.00 | 60 | 1013.3 |
| 20260507144502 | 13 | 328 | 4.8 | 9.7 | 0.00 | 0.03 | 0.00 | 66 | 1013.5 |
| 20260507143004 | 12 | 323 | 4.8 | 8.0 | 0.00 | 0.03 | 0.00 | 66 | 1013.8 |
| 20260507141603 | 12 | 335 | 3.2 | 9.7 | 0.00 | 0.03 | 0.00 | 64 | 1014.0 |
| 20260507140100 | 12 | 326 | 6.4 | 9.7 | 0.00 | 0.03 | 0.00 | 64 | 1014.2 |
| 20260507134611 | 12 | 342 | 3.2 | 9.7 | 0.00 | 0.15 | 0.00 | 62 | 1014.3 |
| 20260507133059 | 12 | 319 | 3.2 | 6.4 | 0.00 | 0.15 | 0.00 | 66 | 1014.4 |
| 20260507131558 | 12 | 337 | 3.2 | 8.0 | 0.00 | 0.15 | 0.00 | 64 | 1014.5 |
| 20260507130109 | 11 | 348 | 3.2 | 8.0 | 0.00 | 0.15 | 0.00 | 65 | 1014.5 |
| 20260507124618 | 12 | 334 | 4.8 | 8.0 | 0.00 | 0.36 | 0.00 | 67 | 1014.5 |
| 20260507123107 | 11 | 330 | 3.2 | 9.7 | 0.00 | 0.36 | 0.00 | 67 | 1014.3 |
| 20260507121559 | 11 | 28 | 0.0 | 4.8 | 0.00 | 0.36 | 0.00 | 69 | 1014.3 |
| 20260507120052 | 11 | 323 | 0.0 | 4.8 | 0.00 | 0.36 | 0.00 | 70 | 1014.0 |
| 20260507114553 | 11 | 67 | 0.0 | 0.0 | 0.00 | 0.58 | 0.00 | 69 | 1014.1 |
| 20260507113049 | 11 | 341 | 0.0 | 3.2 | 0.00 | 0.58 | 0.00 | 68 | 1013.8 |
| 20260507111549 | 11 | 15 | 0.0 | 0.0 | 0.00 | 0.58 | 0.00 | 69 | 1014.0 |
| 20260507110047 | 11 | 359 | 0.0 | 1.6 | 0.00 | 0.58 | 0.00 | 69 | 1013.9 |
| 20260507104550 | 11 | 346 | 0.0 | 3.2 | 0.00 | 0.58 | 0.00 | 69 | 1013.9 |
| 20260507103044 | 11 | 11 | 0.0 | 3.2 | 0.00 | 0.58 | 0.00 | 67 | 1013.5 |
| 20260507101550 | 11 | 8 | 0.0 | 3.2 | 0.00 | 0.58 | 0.00 | 71 | 1013.2 |
| 20260507100049 | 11 | 330 | 0.0 | 1.6 | 0.00 | 0.58 | 0.00 | 73 | 1013.1 |
| 20260507094537 | 11 | 349 | 0.0 | 4.8 | 0.00 | 0.58 | 0.00 | 73 | 1012.9 |
| 20260507093035 | 12 | 352 | 3.2 | 6.4 | 0.00 | 0.58 | 0.00 | 74 | 1012.8 |
| 20260507091532 | 12 | 359 | 3.2 | 8.0 | 0.00 | 0.58 | 0.00 | 79 | 1012.7 |
| 20260507090033 | 12 | 338 | 3.2 | 8.0 | 0.00 | 0.58 | 0.00 | 80 | 1012.8 |
| 20260507084531 | 12 | 351 | 0.0 | 4.8 | 0.00 | 0.58 | 0.00 | 81 | 1012.8 |
| 20260507083030 | 12 | 342 | 4.8 | 8.0 | 0.00 | 0.58 | 0.00 | 80 | 1012.7 |
| 20260507081528 | 12 | 325 | 1.6 | 4.8 | 0.00 | 0.58 | 0.00 | 82 | 1012.8 |
| 20260507080027 | 12 | 335 | 1.6 | 3.2 | 0.00 | 0.58 | 0.00 | 82 | 1012.4 |
| 20260507074527 | 12 | 34 | 0.0 | 0.0 | 0.00 | 0.58 | 0.00 | 82 | 1012.3 |
| 20260507073030 | 12 | 345 | 0.0 | 3.2 | 0.00 | 0.58 | 0.00 | 81 | 1012.2 |
| 20260507071528 | 12 | 25 | 0.0 | 0.0 | 0.00 | 0.58 | 0.00 | 83 | 1012.3 |
| 20260507070035 | 12 | 36 | 0.0 | 1.6 | 0.00 | 0.58 | 0.00 | 82 | 1012.2 |
| 20260507064534 | 12 | 355 | 1.6 | 4.8 | 0.00 | 0.58 | 0.00 | 81 | 1012.3 |
| 20260507063028 | 13 | 13 | 1.6 | 6.4 | 0.00 | 0.58 | 0.00 | 82 | 1012.6 |
| 20260507061521 | 13 | 347 | 3.2 | 6.4 | 0.00 | 0.58 | 0.00 | 82 | 1012.7 |
| 20260507060024 | 13 | 328 | 3.2 | 6.4 | 0.00 | 0.58 | 0.00 | 83 | 1012.6 |
| 20260507054520 | 13 | 342 | 0.0 | 1.6 | 0.00 | 0.58 | 0.00 | 84 | 1012.7 |
| 20260507053017 | 13 | 340 | 0.0 | 3.2 | 0.00 | 0.58 | 0.00 | 84 | 1012.6 |
| 20260507051515 | 13 | 335 | 3.2 | 6.4 | 0.00 | 0.58 | 0.00 | 83 | 1012.5 |
| 20260507050017 | 13 | 30 | 1.6 | 8.0 | 0.00 | 0.58 | 0.00 | 83 | 1012.7 |
| 20260507044612 | 13 | 341 | 3.2 | 6.4 | 0.00 | 0.58 | 0.00 | 84 | 1012.5 |
| 20260507043012 | 13 | 26 | 1.6 | 6.4 | 0.00 | 0.58 | 0.00 | 83 | 1012.0 |
| 20260507041523 | 13 | 328 | 6.4 | 14.5 | 0.00 | 0.58 | 0.00 | 83 | 1012.4 |
| 20260507040006 | 13 | 326 | 3.2 | 6.4 | 0.00 | 0.58 | 0.00 | 83 | 1011.8 |
| 20260507034505 | 13 | 316 | 8.0 | 14.5 | 0.00 | 0.58 | 0.58 | 82 | 1012.3 |
| 20260507033003 | 14 | 355 | 4.8 | 9.7 | 0.00 | 0.58 | 0.58 | 82 | 1012.0 |
| 20260507031601 | 15 | 8 | 1.6 | 6.4 | 0.00 | 0.58 | 0.58 | 82 | 1011.9 |
| 20260507030100 | 15 | 353 | 1.6 | 6.4 | 0.00 | 0.58 | 0.58 | 82 | 1012.0 |
| 20260507024616 | 15 | 23 | 1.6 | 14.5 | 0.00 | 0.58 | 0.58 | 82 | 1011.8 |
| 20260507023055 | 15 | 340 | 11.3 | 17.7 | 0.00 | 0.58 | 0.58 | 81 | 1011.6 |
| 20260507021552 | 15 | 326 | 4.8 | 9.7 | 0.00 | 0.58 | 0.58 | 83 | 1011.5 |
| 20260507020107 | 15 | 340 | 6.4 | 12.9 | 0.00 | 0.58 | 0.58 | 83 | 1011.2 |
| 20260507014603 | 16 | 326 | 4.8 | 9.7 | 0.00 | 0.58 | 0.58 | 83 | 1011.5 |
| 20260507013052 | 16 | 350 | 0.0 | 3.2 | 0.00 | 0.58 | 0.58 | 85 | 1011.1 |
| 20260507011549 | 16 | 70 | 1.6 | 4.8 | 0.00 | 0.58 | 0.58 | 85 | 1010.7 |
| 20260507010049 | 17 | 320 | 0.0 | 9.7 | 0.00 | 0.58 | 0.58 | 86 | 1011.1 |
| 20260507004548 | 17 | 329 | 6.4 | 9.7 | 0.00 | 0.58 | 0.58 | 85 | 1011.3 |
| 20260507003047 | 17 | 347 | 4.8 | 8.0 | 0.00 | 0.58 | 0.58 | 85 | 1011.1 |
| 20260507001548 | 18 | 342 | 3.2 | 11.3 | 0.00 | 0.58 | 0.58 | 84 | 1010.8 |
| 20260507000045 | 18 | 335 | 3.2 | 9.7 | 0.00 | 0.58 | 0.58 | 83 | 1010.1 |
| 20260506234551 | 18 | 313 | 4.8 | 8.0 | 0.00 | 0.58 | 0.58 | 83 | 1010.1 |
| 20260506233043 | 18 | 318 | 6.4 | 8.0 | 0.00 | 0.58 | 0.58 | 85 | 1010.0 |
| 20260506231551 | 19 | 333 | 4.8 | 11.3 | 0.00 | 0.58 | 0.58 | 85 | 1009.5 |
| 20260506230053 | 19 | 332 | 8.0 | 12.9 | 0.00 | 0.58 | 0.58 | 85 | 1009.0 |
| 20260506224541 | 20 | 280 | 0.0 | 0.0 | 0.00 | 0.58 | 0.58 | 84 | 1009.0 |
| 20260506223051 | 20 | 210 | 0.0 | 3.2 | 0.00 | 0.58 | 0.58 | 84 | 1008.9 |
| 20260506221540 | 20 | 286 | 0.0 | 6.4 | 0.00 | 0.58 | 0.58 | 83 | 1008.9 |
| 20260506220040 | 20 | 297 | 0.0 | 0.0 | 0.00 | 0.58 | 0.58 | 83 | 1008.8 |
| 20260506214540 | 20 | 223 | 0.0 | 1.6 | 0.00 | 0.58 | 0.58 | 84 | 1008.8 |
| 20260506213059 | 20 | 184 | 0.0 | 8.0 | 0.00 | 0.58 | 0.58 | 84 | 1008.9 |
| 20260506211549 | 20 | 154 | 1.6 | 12.9 | 0.00 | 0.58 | 0.58 | 83 | 1008.6 |
| 20260506210037 | 20 | 169 | 0.0 | 6.4 | 0.00 | 0.58 | 0.58 | 82 | 1008.3 |
| 20260506204546 | 20 | 219 | 0.0 | 8.0 | 0.00 | 0.58 | 0.58 | 83 | 1008.3 |
| 20260506203040 | 20 | 214 | 1.6 | 6.4 | 0.00 | 0.58 | 0.58 | 83 | 1008.1 |
| 20260506201550 | 20 | 242 | 3.2 | 11.3 | 0.00 | 0.58 | 0.58 | 83 | 1008.2 |
| 20260506200035 | 20 | 212 | 1.6 | 12.9 | 0.00 | 0.58 | 0.58 | 83 | 1008.2 |
| 20260506194536 | 20 | 264 | 3.2 | 12.9 | 0.00 | 0.58 | 0.58 | 82 | 1008.3 |
| 20260506193034 | 20 | 269 | 1.6 | 11.3 | 0.00 | 0.58 | 0.58 | 82 | 1008.3 |
| 20260506191533 | 20 | 263 | 3.2 | 12.9 | 0.00 | 0.58 | 0.58 | 81 | 1008.5 |
| 20260506190028 | 21 | 201 | 4.8 | 12.9 | 0.00 | 0.58 | 0.58 | 81 | 1008.4 |
| 20260506184526 | 20 | 167 | 1.6 | 8.0 | 0.00 | 0.58 | 0.58 | 82 | 1008.4 |
| 20260506183030 | 20 | 167 | 3.2 | 0.0 | 0.00 | 0.00 | 0.58 | 83 | 1008.6 |
| 20260506181523 | 19 | 225 | 3.2 | 16.1 | 0.00 | 0.58 | 0.58 | 84 | 1008.7 |